Dobrodošli na spletni strani vremenske postaje Senovo. Vse informacije so informativnega značaja, saj vremenska postaja ni del državne mreže meteoroloških postaj. AKTUALNIH OBVESTIL NI.


Posebna pozornost v zvezi z vremenskimi dogajanji ni potrebna.    Posebna pozornost v zvezi z vremenskimi dogajanji ni potrebna.

Pogled proti Armezu več informacij Pogled proti Armezu


Lisca več informacij Lisca


Radar strel več informacij blitzortung!


Radar padavin več informacij rain snow radar


Obiščite še:

Template documentation
and downloads

And another site



METAR v bližini

   
LJLJ - Ljubljana
Posodobljeno: 24-01-2018 10:30
jasno  
jasno  
   Veter: različen 1.9 km/h
Veter: različen 1.9 km/h
Temperatura: 2°C
Točka rosišča: -1°C
Vlažnost: 81%
Zračni tlak: 1030 hPa
Vidljivost: More than 10 km
Podrobnosti o oblakih: jasno
LJLJ 240930Z VRB01KT CAVOK 02/M01 Q1030 NOSIG
LJCE - Cerklje ob Krki
Posodobljeno: 24-01-2018 10:30
jasno  
jasno  
   Veter: Zahod 5.6 km/h
Veter: Zahod 5.6 km/h
Temperatura: 2°C
Občutek mraza: 1°C
Točka rosišča: -1°C
Vlažnost: 81%
Zračni tlak: 1031 hPa
Vidljivost: More than 10 km
Podrobnosti o oblakih: jasno
LJCE 240930Z 28003KT 240V310 CAVOK 02/M01 Q1031 RMK BLU
LJMB - Maribor
Posodobljeno: 24-01-2018 10:30
jasno  
jasno  
   Veter: različen 3.7 km/h
Veter: različen 3.7 km/h
Temperatura: 4°C
Točka rosišča: -1°C
Vlažnost: 70%
Zračni tlak: 1030 hPa
Vidljivost: More than 10 km
Podrobnosti o oblakih: jasno
LJMB 240930Z VRB02KT CAVOK 04/M01 Q1030
LJPZ - Portorož
Posodobljeno: 24-01-2018 10:30
jasno  
jasno  
   Veter: Vzhod 3.7 km/h
Veter: Vzhod 3.7 km/h
Temperatura: 10°C
Točka rosišča: 3°C
Vlažnost: 62%
Zračni tlak: 1032 hPa
Vidljivost: More than 10 km
Podrobnosti o oblakih: jasno
LJPZ 240930Z 09002KT CAVOK 10/03 Q1032
LDRI - Rijeka, Airport, Croatia
Posodobljeno: 24-01-2018 10:30
jasno  
jasno  
   Veter: JJZ 5.6 km/h
Veter: JJZ 5.6 km/h
Temperatura: 11°C
Točka rosišča: 1°C
Vlažnost: 50%
Zračni tlak: 1032 hPa
Vidljivost: More than 10 km
Podrobnosti o oblakih: jasno
LDRI 240930Z 20003KT CAVOK 11/01 Q1032
LOWK - Klagenfurt, Airport, Avstia
Posodobljeno: 24-01-2018 10:20
nekaj oblakov  
nekaj oblakov  
   Veter: različen 3.7 km/h
Veter: različen 3.7 km/h
Temperatura: 2°C
Točka rosišča: -2°C
Vlažnost: 75%
Zračni tlak: 1031 hPa
Oblaki: nekaj oblakov
Vidljivost: More than 10 km
Podrobnosti o oblakih: nekaj oblakov 1828.8 m
LOWK 240920Z VRB02KT 9999 FEW060 02/M02 Q1031 R10L/19//95 NOSIG

Script developed by  Saratoga-weather.org Adapted for the template by  Weerstation Leuven

Vremenski podatki so objavljeni na:

WeatherCloud

Weather Underground

AWEKAS

HAMweather, WeatherForYou, PWS Weather

MapView

Geostik

Slovenia weather network

Oprema, ki se uporablja:

Vremenski program
Cumulus

Cumulus